• Join FlightAware (Why Join?)
  • Login
  • US Flag 
04:58AM EDT


 

Airport Tracker/Info


-or-


 

Live Flight TrackerFlight Track Log ✈ N38GT ✈ 20-Aug-2013 ✈ KTRM - KAPA

Flight Track Log - Related Links

Times and Time Zones

All times are in EDT time to prevent confusion due to time zone crossing. See the N38GT flight status page for this flight to view local times or setup timezone preferences in your user account.

Time Position Orientation Groundspeed Altitude Reporting Facility
EDT Latitude Longitude Course Direction KTS MPH feet Rate Location/Type
01:28PM 33.6272 -116.0592 77° East 233 268 45,000  Level Los Angeles Center
01:29PM 33.6425 -115.9783 77° East 235 270 6,500 -17,280 Descending Los Angeles Center
01:30PM 33.6425 -115.8942 90° East 246 283 9,000 2,400 Climbing Los Angeles Center
01:31PM 33.7058 -115.8511 29° Northeast 267 307 11,500 2,340 Climbing Los Angeles Center
01:32PM 33.7797 -115.8161 21° North 279 321 13,900 2,220 Climbing Los Angeles Center
01:33PM 33.8564 -115.7819 20° North 289 333 16,100 2,280 Climbing Los Angeles Center
01:34PM 33.9522 -115.7386 21° North 302 348 18,700 1,740 Climbing Los Angeles Center
01:40PM 34.4110 -115.3540 21° North 370 426 28,400 1,560 Climbing FlightAware
01:41PM 34.4590 -115.2980 44° Northeast 375 432 29,100 1,020 Climbing FlightAware
01:41PM 34.4980 -115.2510 45° Northeast 379 436 29,600 1,020 Climbing FlightAware
01:42PM 34.5340 -115.1860 56° Northeast 378 435 30,300 1,080 Climbing FlightAware
01:42PM 34.5650 -115.1280 57° Northeast 377 434 30,900 480 Climbing FlightAware
01:43PM 34.5970 -115.0680 57° Northeast 377 434 30,900 1,140 Level FlightAware
01:44PM 34.6370 -114.9940 57° Northeast 375 432 32,400 1,680 Climbing FlightAware
01:44PM 34.6720 -114.9280 57° Northeast 378 435 33,000 900 Climbing FlightAware
01:45PM 34.7020 -114.8710 57° Northeast 380 437 33,500 1,140 Climbing FlightAware
01:45PM 34.7340 -114.8110 57° Northeast 372 428 34,300 1,260 Climbing FlightAware
01:46PM 34.7710 -114.7410 57° Northeast 371 427 35,100 900 Climbing FlightAware
01:47PM 34.8050 -114.6770 57° Northeast 376 433 35,500 780 Climbing FlightAware
01:47PM 34.8360 -114.6180 57° Northeast 379 436 36,000 1,020 Climbing FlightAware
01:48PM 34.8670 -114.5600 57° Northeast 377 434 36,700 1,080 Climbing FlightAware
01:48PM 34.9010 -114.4960 57° Northeast 376 433 37,300 1,140 Climbing FlightAware
01:49PM 34.9330 -114.4350 57° Northeast 373 429 38,000 960 Climbing FlightAware
01:49PM 34.9650 -114.3740 57° Northeast 379 436 38,400 660 Climbing FlightAware
01:50PM 34.9970 -114.3130 57° Northeast 380 437 38,800 960 Climbing FlightAware
01:51PM 35.0340 -114.2430 57° Northeast 375 432 39,600 1,200 Climbing FlightAware
01:51PM 35.0650 -114.1840 57° Northeast 368 423 40,300 960 Climbing FlightAware
01:52PM 35.0950 -114.1250 58° Northeast 373 429 40,700 720 Climbing FlightAware
01:52PM 35.1300 -114.0580 57° Northeast 373 429 41,200 780 Climbing FlightAware
01:53PM 35.1650 -113.9920 57° Northeast 373 429 41,700 780 Climbing FlightAware
01:54PM 35.1940 -113.9360 58° Northeast 373 429 42,100 900 Climbing FlightAware
01:54PM 35.2290 -113.8690 57° Northeast 366 421 42,800 720 Climbing FlightAware
01:55PM 35.2580 -113.8130 58° Northeast 368 423 43,000 600 Climbing FlightAware
01:55PM 35.2900 -113.7500 58° Northeast 366 421 43,500 360 Climbing FlightAware
01:56PM 35.3220 -113.6880 58° Northeast 377 434 43,500 240 Level FlightAware
01:56PM 35.3540 -113.6270 57° Northeast 379 436 43,800 660 Climbing FlightAware
01:57PM 35.3870 -113.5620 58° Northeast 371 427 44,300 420 Climbing FlightAware
01:58PM 35.4160 -113.5060 58° Northeast 377 434 44,300 120 Level FlightAware
01:58PM 35.4520 -113.4360 58° Northeast 383 441 44,500 240 Climbing FlightAware
01:59PM 35.4840 -113.3730 58° Northeast 386 444 44,600 120 Climbing FlightAware
01:59PM 35.5200 -113.3030 58° Northeast 389 448 44,700 120 Climbing FlightAware
02:00PM 35.5520 -113.2390 58° Northeast 391 450 44,800 240 Climbing FlightAware
02:01PM 35.5850 -113.1750 58° Northeast 392 451 45,000 120 Climbing FlightAware
02:01PM 35.6190 -113.1070 58° Northeast 395 455 45,000  Level FlightAware
02:02PM 35.6540 -113.0380 58° Northeast 400 460 45,000  Level FlightAware
02:02PM 35.6880 -112.9710 58° Northeast 404 465 45,000  Level FlightAware
02:03PM 35.7250 -112.8990 58° Northeast 406 467 45,000  Level FlightAware
02:03PM 35.7570 -112.8340 59° Northeast 409 471 45,000  Level FlightAware
02:04PM 35.7880 -112.7720 58° Northeast 412 474 45,000  Level FlightAware
02:05PM 35.8250 -112.7000 58° Northeast 413 475 45,000  Level FlightAware
02:05PM 35.8610 -112.6270 59° Northeast 414 476 45,000  Level FlightAware
02:06PM 35.8980 -112.5520 59° Northeast 415 478 45,000  Level FlightAware
02:06PM 35.9350 -112.4780 58° Northeast 416 479 45,000  Level FlightAware
02:07PM 35.9670 -112.4150 58° Northeast 417 480 45,000  Level FlightAware
02:08PM 36.0020 -112.3440 59° Northeast 418 481 45,000  Level FlightAware
02:08PM 36.0370 -112.2740 58° Northeast 418 481 45,000  Level FlightAware
02:09PM 36.0680 -112.2110 59° Northeast 419 482 45,000  Level FlightAware
02:09PM 36.1030 -112.1410 58° Northeast 418 481 45,000  Level FlightAware
02:10PM 36.1340 -112.0770 59° Northeast 418 481 45,000  Level FlightAware
02:10PM 36.1750 -111.9940 59° Northeast 417 480 45,000  Level FlightAware
02:11PM 36.2070 -111.9280 59° Northeast 417 480 45,000  Level FlightAware
02:12PM 36.2400 -111.8610 59° Northeast 417 480 45,000  Level FlightAware
02:12PM 36.2780 -111.7830 59° Northeast 416 479 45,000  Level FlightAware
02:13PM 36.3110 -111.7150 59° Northeast 416 479 45,000  Level FlightAware
02:13PM 36.3440 -111.6480 59° Northeast 415 478 45,000  Level FlightAware
02:14PM 36.3780 -111.5780 59° Northeast 415 478 45,000  Level FlightAware
02:14PM 36.4140 -111.5030 59° Northeast 414 476 45,000  Level FlightAware
02:15PM 36.4480 -111.4320 59° Northeast 414 476 45,000  Level FlightAware
02:16PM 36.4840 -111.3570 59° Northeast 414 476 45,000  Level FlightAware
02:16PM 36.5120 -111.3000 59° Northeast 414 476 45,000  Level FlightAware
02:17PM 36.5470 -111.2260 59° Northeast 413 475 45,000  Level FlightAware
02:17PM 36.5820 -111.1530 59° Northeast 413 475 45,000  Level FlightAware
02:18PM 36.6100 -111.0950 59° Northeast 414 476 45,000  Level FlightAware
02:18PM 36.6470 -111.0170 59° Northeast 414 476 45,000  Level FlightAware
02:19PM 36.6820 -110.9440 59° Northeast 414 476 45,000  Level FlightAware
02:20PM 36.7160 -110.8730 59° Northeast 414 476 45,000  Level FlightAware
02:20PM 36.7500 -110.8010 59° Northeast 415 478 45,000  Level FlightAware
02:21PM 36.7830 -110.7310 60° Northeast 415 478 45,000  Level FlightAware
02:21PM 36.8210 -110.6510 59° Northeast 415 478 45,000  Level FlightAware
02:22PM 36.8530 -110.5820 60° Northeast 416 479 45,000  Level FlightAware
02:23PM 36.8900 -110.5030 60° Northeast 415 478 45,000  Level FlightAware
02:23PM 36.9210 -110.4380 59° Northeast 416 479 45,000  Level FlightAware
02:24PM 36.9560 -110.3630 60° Northeast 416 479 45,000  Level FlightAware
02:24PM 36.9900 -110.2910 59° Northeast 415 478 45,000  Level FlightAware
02:25PM 37.0220 -110.2210 60° Northeast 414 476 45,000  Level FlightAware
02:26PM 37.0630 -110.1340 59° Northeast 413 475 45,000  Level FlightAware
02:26PM 37.0960 -110.0630 60° Northeast 413 475 45,000  Level FlightAware
02:27PM 37.1260 -109.9960 61° Northeast 413 475 45,000  Level FlightAware
02:28PM 37.1560 -109.9330 59° Northeast 413 475 45,000  Level FlightAware
02:28PM 37.1850 -109.8690 60° Northeast 413 475 45,000  Level FlightAware
02:29PM 37.2320 -109.7670 60° Northeast 411 473 45,000  Level FlightAware
02:29PM 37.2640 -109.6980 60° Northeast 411 473 45,000  Level FlightAware
02:30PM 37.3060 -109.6050 60° Northeast 412 474 45,000  Level FlightAware
02:31PM 37.3440 -109.5230 60° Northeast 412 474 45,000  Level FlightAware
02:31PM 37.3240 -109.5670 240° Southwest 412 474 45,000  Level FlightAware
02:32PM 37.4130 -109.3710 60° Northeast 412 474 45,000  Level FlightAware
02:32PM 37.4520 -109.2840 61° Northeast 412 474 45,000  Level FlightAware
02:33PM 37.4810 -109.2210 60° Northeast 413 475 45,000  Level FlightAware
02:34PM 37.5160 -109.1430 60° Northeast 413 475 45,000  Level FlightAware
02:34PM 37.5450 -109.0790 60° Northeast 414 476 45,000  Level FlightAware
02:35PM 37.5770 -109.0080 60° Northeast 414 476 45,000  Level FlightAware
02:35PM 37.5650 -109.0350 241° Southwest 415 478 45,000  Level FlightAware
02:36PM 37.5780 -109.0060 60° Northeast 415 478 45,000  Level FlightAware
02:37PM 37.6850 -108.7650 61° Northeast 413 475 45,000  Level FlightAware
02:37PM 37.7220 -108.6830 60° Northeast 413 475 45,000  Level FlightAware
02:38PM 37.7560 -108.6050 61° Northeast 413 475 45,000  Level FlightAware
02:38PM 37.7840 -108.5430 60° Northeast 413 475 45,000  Level FlightAware
02:39PM 37.8230 -108.4550 61° Northeast 413 475 45,000  Level FlightAware
02:40PM 37.8530 -108.3890 60° Northeast 413 475 45,000  Level FlightAware
02:40PM 37.8980 -108.2830 62° Northeast 412 474 45,000  Level FlightAware
02:41PM 37.9450 -108.1760 61° Northeast 412 474 45,000  Level FlightAware
02:42PM 37.9660 -108.1280 61° Northeast 411 473 45,000  Level FlightAware
02:42PM 38.0070 -108.0330 61° Northeast 410 472 45,000  Level FlightAware
02:43PM 38.0410 -107.9570 60° Northeast 410 472 45,000  Level FlightAware
02:44PM 38.0840 -107.8570 61° Northeast 411 473 45,000  Level FlightAware
02:44PM 38.1160 -107.7830 61° Northeast 409 471 45,000  Level FlightAware
02:45PM 38.1540 -107.6940 61° Northeast 406 467 45,000  Level FlightAware
02:46PM 38.1830 -107.6270 61° Northeast 406 467 45,000 -120 Level FlightAware
02:46PM 38.2060 -107.5750 61° Northeast 407 468 44,900 -1,800 Descending FlightAware
02:47PM 38.2500 -107.4710 62° Northeast 401 461 42,800 -2,520 Descending FlightAware
02:47PM 38.2840 -107.3910 62° Northeast 401 461 41,700 -1,920 Descending FlightAware
02:48PM 38.3182 -107.3110 61° Northeast 40,500 -1,920 Descending FlightAware ADS-B
02:48PM 38.3281 -107.2870 62° Northeast 409 471 40,200 -1,740 Descending FlightAware ADS-B
02:49PM 38.3556 -107.2230 61° Northeast 414 476 39,300 -1,800 Descending FlightAware ADS-B
02:49PM 38.3856 -107.1520 62° Northeast 423 487 38,300 -1,800 Descending FlightAware ADS-B
02:50PM 38.4140 -107.0850 62° Northeast 427 491 37,400 -2,040 Descending FlightAware
02:50PM 38.4450 -107.0110 62° Northeast 425 489 36,100 -2,400 Descending FlightAware
02:51PM 38.4730 -106.9430 62° Northeast 413 475 34,700 -2,580 Descending FlightAware
02:52PM 38.5110 -106.8540 61° Northeast 407 468 33,000 -2,640 Descending FlightAware
02:52PM 38.5501 -106.7600 62° Northeast 31,200 -2,580 Descending FlightAware ADS-B
02:53PM 38.5761 -106.6910 64° Northeast 397 457 29,800 -2,580 Descending FlightAware ADS-B
02:53PM 38.5799 -106.6690 78° East 392 451 29,400 -2,340 Descending FlightAware ADS-B
02:53PM 38.5821 -106.6340 85° East 388 447 28,800 -2,100 Descending FlightAware ADS-B
02:54PM 38.5790 -106.5230 92° East 379 436 27,100 -1,500 Descending FlightAware
02:54PM 38.5781 -106.4690 91° East 375 432 27,000 -120 Descending FlightAware ADS-B
02:55PM 38.5764 -106.4010 92° East 376 433 27,000  Level FlightAware ADS-B
02:56PM 38.5743 -106.3340 92° East 377 434 27,000  Level FlightAware ADS-B
02:56PM 38.5723 -106.2770 93° East 379 436 27,000  Level FlightAware ADS-B
02:56PM 38.5735 -106.2490 87° East 378 435 27,000  Level FlightAware ADS-B
02:56PM 38.5748 -106.2410 78° East 377 434 27,000  Level FlightAware ADS-B
02:56PM 38.5816 -106.2180 69° East 375 432 27,000  Level FlightAware ADS-B
02:56PM 38.5860 -106.2080 61° Northeast 374 430 27,000  Level FlightAware ADS-B
02:57PM 38.6260 -106.1400 53° Northeast 367 422 27,000  Level FlightAware
02:58PM 38.6553 -106.0910 53° Northeast 364 419 27,000  Level FlightAware ADS-B
02:58PM 38.6868 -106.0390 52° Northeast 362 417 27,000  Level FlightAware ADS-B
02:59PM 38.7289 -105.9690 52° Northeast 362 417 27,000  Level FlightAware ADS-B
02:59PM 38.7608 -105.9150 53° Northeast 359 413 27,000  Level FlightAware ADS-B
03:00PM 38.7924 -105.8630 52° Northeast 364 419 27,000  Level FlightAware ADS-B
03:00PM 38.8270 -105.8050 53° Northeast 370 426 27,000  Level FlightAware ADS-B
03:01PM 38.8649 -105.7410 53° Northeast 367 422 27,000  Level FlightAware ADS-B
03:02PM 38.9013 -105.6810 52° Northeast 367 422 27,000 -180 Level FlightAware ADS-B
03:02PM 38.9107 -105.6700 42° Northeast 370 426 26,900 -1,020 Descending FlightAware ADS-B
03:02PM 38.9167 -105.6650 33° Northeast 372 428 26,800 -1,380 Descending FlightAware ADS-B
03:02PM 38.9236 -105.6600 29° Northeast 376 433 26,700 -2,100 Descending FlightAware ADS-B
03:02PM 38.9736 -105.6340 22° Northeast 395 455 25,600 -2,520 Descending FlightAware ADS-B
03:03PM 39.0312 -105.6050 21° North 392 451 24,100 -2,580 Descending FlightAware ADS-B
03:03PM 39.0807 -105.5790 22° Northeast 362 417 22,900 -2,220 Descending FlightAware ADS-B
03:04PM 39.1357 -105.5510 22° Northeast 331 381 21,600 -2,160 Descending FlightAware ADS-B
03:04PM 39.1431 -105.5460 28° Northeast 329 379 21,400 -2,400 Descending FlightAware ADS-B
03:04PM 39.1490 -105.5400 38° Northeast 327 376 21,200 -2,340 Descending FlightAware ADS-B
03:04PM 39.1574 -105.5290 45° Northeast 325 374 20,900 -2,160 Descending FlightAware ADS-B
03:04PM 39.1631 -105.5200 51° Northeast 323 372 20,700 -2,040 Descending FlightAware ADS-B
03:05PM 39.1670 -105.5110 61° Northeast 321 369 20,500 -2,220 Descending FlightAware ADS-B
03:05PM 39.1701 -105.5010 68° East 319 367 20,300 -2,280 Descending FlightAware ADS-B
03:05PM 39.1736 -105.4810 77° East 315 362 19,900 -1,980 Descending FlightAware ADS-B
03:05PM 39.1771 -105.4230 86° East 315 362 18,900 -1,920 Descending FlightAware ADS-B
03:06PM 39.1815 -105.3400 86° East 335 386 17,600 -1,980 Descending FlightAware ADS-B
03:07PM 39.1846 -105.2800 86° East 333 383 16,500 -1,800 Descending FlightAware ADS-B
03:07PM 39.1875 -105.2230 86° East 296 341 15,800 -780 Descending FlightAware ADS-B
03:08PM 39.1895 -105.1810 86° East 256 295 15,800  Level FlightAware ADS-B
03:08PM 39.1903 -105.1720 83° East 251 289 15,800  Level FlightAware ADS-B
03:08PM 39.1913 -105.1670 76° East 247 284 15,800  Level FlightAware ADS-B
03:08PM 39.1930 -105.1610 70° East 244 281 15,800 -1,320 Level FlightAware ADS-B
03:08PM 39.2016 -105.1370 65° Northeast 242 278 15,300 -1,800 Descending FlightAware ADS-B
03:08PM 39.2074 -105.1260 56° Northeast 244 281 15,000 -2,040 Descending FlightAware ADS-B
03:08PM 39.2127 -105.1190 46° Northeast 246 283 14,800 -2,280 Descending FlightAware ADS-B
03:09PM 39.2456 -105.0930 31° Northeast 251 289 13,500 -2,100 Descending FlightAware ADS-B
03:10PM 39.2913 -105.0590 30° Northeast 258 297 12,100 -1,380 Descending FlightAware ADS-B
03:10PM 39.3410 -105.0220 30° Northeast 232 267 11,300 -960 Descending FlightAware
03:11PM 39.3527 -105.0130 31° Northeast 235 270 11,100 -720 Descending FlightAware ADS-B
03:11PM 39.3820 -104.9910 30° Northeast 225 259 10,800 -420 Descending FlightAware ADS-B
03:11PM 39.3984 -104.9820 23° Northeast 211 243 10,800  Level FlightAware ADS-B
03:12PM 39.4043 -104.9810 North 213 245 10,800 -720 Level FlightAware ADS-B
03:12PM 39.4347 -104.9840 356° North 233 268 10,400 -1,200 Descending FlightAware ADS-B
03:12PM 39.4520 -104.9850 357° North 247 284 9,900 -1,980 Descending FlightAware ADS-B
03:13PM 39.4731 -104.9880 354° North 250 288 9,300 -1,740 Descending FlightAware ADS-B
03:13PM 39.4923 -104.9900 355° North 250 288 8,900 -720 Descending FlightAware ADS-B
03:13PM 39.5086 -104.9910 357° North 236 272 8,900 -180 Level FlightAware ADS-B
03:14PM 39.5145 -104.9920 353° North 236 272 8,800 -240 Descending FlightAware ADS-B
03:14PM 39.5198 -104.9920 360° North 224 258 8,800  Level FlightAware ADS-B
03:14PM 39.5416 -104.9950 354° North 203 234 8,800  Level FlightAware ADS-B
03:14PM 39.5579 -104.9960 357° North 185 213 8,800  Level FlightAware ADS-B
03:14PM 39.5804 -104.9930 North 181 208 8,800 -480 Level FlightAware ADS-B
03:15PM 39.6034 -104.9900 North 191 220 8,400 -1,140 Descending FlightAware ADS-B
03:15PM 39.6239 -104.9880 North 200 230 7,900 -900 Descending FlightAware ADS-B
03:16PM 39.6394 -104.9860 North 200 230 7,800 -180 Descending FlightAware ADS-B
03:16PM 39.6587 -104.9770 20° North 151 174 7,800  Level FlightAware ADS-B
03:16PM 39.6596 -104.9750 60° Northeast 146 168 7,800  Level FlightAware ADS-B
03:17PM 39.6576 -104.9430 95° East 138 159 7,800 -600 Level FlightAware ADS-B
03:18PM 39.6530 -104.8940 97° East 157 181 6,900 -960 Descending FlightAware
03:18PM 39.6510 -104.8760 98° East 145 167 6,700 -600 Descending FlightAware
03:18PM 39.6500 -104.8670 98° East 136 157 6,600 -300 Descending FlightAware
03:18PM 39.6470 -104.8620 128° Southeast 132 152 6,600  Level FlightAware
03:18PM 39.6430 -104.8590 150° Southeast 138 159 6,600 -660 Level FlightAware
03:19PM 39.6350 -104.8540 154° Southeast 147 169 6,400 -960 Descending FlightAware
03:19PM 39.6300 -104.8540 180° South 148 170 6,300 -480 Descending FlightAware
03:19PM 39.6170 -104.8530 177° South 135 155 6,200 -480 Descending FlightAware
03:19PM 39.6040 -104.8520 177° South 136 157 6,000 -600 Descending FlightAware
03:20PM 39.5820 -104.8510 178° South 122 140 5,700 -600 Descending FlightAware ADS-B
03:20PM 39.5741 -104.8510 180° South 76 87 -20,160 Descending FlightAware ADS-B